South Amherst, Ohio
Current Conditions -  °F | °C
As of 5:53 PM on Wednesday 26 Nov 2014 (Local Time) from KLPR Reporting Station
Overcast Overcast  
Wind Chill: 28°   Ceiling: 4000
Heat Index: 33°   Visibility: 10mi
Dew Point: 28°   Wind: 6mph
Humidity: 82%   Direction: 340°NNW
Pressure: 30.05"   Gusts: NA
Location:  41.3705°N, 82.2583°W
Report Text: KLPR 262253Z AUTO 34005KT 10SM OVC040 01/M02 A3005 RMK AO2 SLP185 T00061022 TSNO
Loading
Personal Weather Stations






























Interactive Weather Map New forecast layout! Learn more

10-Day Weather Forecast

Advertisements
Track Severe Weather on mobile